sensor_id;sensor_type;location;lat;lon;timestamp;pressure;altitude;pressure_sealevel;temperature;humidity
66801;BME280;53703;50.326;19.122;2023-01-31T00:01:54;97879.94;;;16.52;41.43
66801;BME280;53703;50.326;19.122;2023-01-31T00:04:48;97873.83;;;16.53;41.42
66801;BME280;53703;50.326;19.122;2023-01-31T00:07:43;97868.80;;;16.53;41.41
66801;BME280;53703;50.326;19.122;2023-01-31T00:10:38;97875.65;;;16.54;41.48
66801;BME280;53703;50.326;19.122;2023-01-31T00:13:32;97880.33;;;16.55;41.41
66801;BME280;53703;50.326;19.122;2023-01-31T00:16:27;97881.49;;;16.55;41.49
66801;BME280;53703;50.326;19.122;2023-01-31T00:19:22;97889.86;;;16.56;41.39
66801;BME280;53703;50.326;19.122;2023-01-31T00:22:16;97891.56;;;16.51;41.48
66801;BME280;53703;50.326;19.122;2023-01-31T00:25:11;97891.64;;;16.54;41.43
66801;BME280;53703;50.326;19.122;2023-01-31T00:28:05;97893.17;;;16.53;41.52
66801;BME280;53703;50.326;19.122;2023-01-31T00:31:01;97902.02;;;16.51;41.53
66801;BME280;53703;50.326;19.122;2023-01-31T00:33:56;97893.91;;;16.53;41.45
66801;BME280;53703;50.326;19.122;2023-01-31T00:36:50;97897.46;;;16.51;41.47
66801;BME280;53703;50.326;19.122;2023-01-31T00:39:44;97901.29;;;16.52;41.51
66801;BME280;53703;50.326;19.122;2023-01-31T00:42:39;97904.53;;;16.53;41.59
66801;BME280;53703;50.326;19.122;2023-01-31T00:45:33;97903.39;;;16.55;41.53
66801;BME280;53703;50.326;19.122;2023-01-31T00:48:28;97906.77;;;16.51;41.64
66801;BME280;53703;50.326;19.122;2023-01-31T00:51:24;97911.84;;;16.56;41.51
66801;BME280;53703;50.326;19.122;2023-01-31T00:54:19;97908.27;;;16.52;41.57
66801;BME280;53703;50.326;19.122;2023-01-31T00:57:13;97912.70;;;16.53;41.63
66801;BME280;53703;50.326;19.122;2023-01-31T01:00:10;97915.92;;;16.49;41.54
66801;BME280;53703;50.326;19.122;2023-01-31T01:03:04;97929.25;;;16.51;41.54
66801;BME280;53703;50.326;19.122;2023-01-31T01:05:59;97930.25;;;16.50;41.67
66801;BME280;53703;50.326;19.122;2023-01-31T01:08:54;97938.52;;;16.52;41.54
66801;BME280;53703;50.326;19.122;2023-01-31T01:11:48;97945.70;;;16.57;41.49
66801;BME280;53703;50.326;19.122;2023-01-31T01:14:43;97947.78;;;16.55;41.57
66801;BME280;53703;50.326;19.122;2023-01-31T01:17:37;97952.36;;;16.56;41.49
66801;BME280;53703;50.326;19.122;2023-01-31T01:20:31;97959.67;;;16.63;41.42
66801;BME280;53703;50.326;19.122;2023-01-31T01:23:27;97960.95;;;16.53;41.57
66801;BME280;53703;50.326;19.122;2023-01-31T01:26:24;97958.08;;;16.48;41.68
66801;BME280;53703;50.326;19.122;2023-01-31T01:29:18;97958.16;;;16.55;41.74
66801;BME280;53703;50.326;19.122;2023-01-31T01:32:12;97957.24;;;16.49;41.74
66801;BME280;53703;50.326;19.122;2023-01-31T01:35:07;97964.17;;;16.49;41.67
66801;BME280;53703;50.326;19.122;2023-01-31T01:38:03;97964.75;;;16.47;41.96
66801;BME280;53703;50.326;19.122;2023-01-31T01:40:57;97965.23;;;16.47;41.78
66801;BME280;53703;50.326;19.122;2023-01-31T01:43:54;97967.52;;;16.49;41.75
66801;BME280;53703;50.326;19.122;2023-01-31T01:46:51;97969.70;;;16.47;41.91
66801;BME280;53703;50.326;19.122;2023-01-31T01:49:47;97968.61;;;16.46;41.88
66801;BME280;53703;50.326;19.122;2023-01-31T01:52:49;97974.14;;;16.52;41.78
66801;BME280;53703;50.326;19.122;2023-01-31T01:55:48;97975.89;;;16.45;41.98
66801;BME280;53703;50.326;19.122;2023-01-31T01:58:54;97976.13;;;16.49;41.90
66801;BME280;53703;50.326;19.122;2023-01-31T02:01:50;97973.85;;;16.46;41.98
66801;BME280;53703;50.326;19.122;2023-01-31T02:04:47;97979.60;;;16.44;42.06
66801;BME280;53703;50.326;19.122;2023-01-31T02:07:41;97981.66;;;16.47;41.98
66801;BME280;53703;50.326;19.122;2023-01-31T02:10:39;97986.95;;;16.51;42.07
66801;BME280;53703;50.326;19.122;2023-01-31T02:13:36;97988.40;;;16.49;41.98
66801;BME280;53703;50.326;19.122;2023-01-31T02:16:32;97994.78;;;16.53;41.96
66801;BME280;53703;50.326;19.122;2023-01-31T02:19:37;97998.82;;;16.54;41.90
66801;BME280;53703;50.326;19.122;2023-01-31T02:22:41;98003.86;;;16.54;41.87
66801;BME280;53703;50.326;19.122;2023-01-31T02:26:03;98007.94;;;16.53;41.93
66801;BME280;53703;50.326;19.122;2023-01-31T02:29:41;98013.36;;;16.54;41.92
66801;BME280;53703;50.326;19.122;2023-01-31T02:33:03;98016.13;;;16.50;42.07
66801;BME280;53703;50.326;19.122;2023-01-31T02:36:16;98027.73;;;16.52;42.00
66801;BME280;53703;50.326;19.122;2023-01-31T02:39:37;98028.77;;;16.49;42.04
66801;BME280;53703;50.326;19.122;2023-01-31T02:42:44;98029.80;;;16.50;42.03
66801;BME280;53703;50.326;19.122;2023-01-31T02:45:52;98037.17;;;16.52;41.97
66801;BME280;53703;50.326;19.122;2023-01-31T02:48:54;98038.06;;;16.47;42.15
66801;BME280;53703;50.326;19.122;2023-01-31T02:51:52;98047.49;;;16.45;42.04
66801;BME280;53703;50.326;19.122;2023-01-31T02:55:08;98050.59;;;16.46;42.07
66801;BME280;53703;50.326;19.122;2023-01-31T02:58:26;98057.99;;;16.50;42.07
66801;BME280;53703;50.326;19.122;2023-01-31T03:01:25;98056.77;;;16.52;42.03
66801;BME280;53703;50.326;19.122;2023-01-31T03:04:20;98056.95;;;16.49;42.04
66801;BME280;53703;50.326;19.122;2023-01-31T03:07:18;98059.30;;;16.50;42.04
66801;BME280;53703;50.326;19.122;2023-01-31T03:10:30;98062.80;;;16.54;42.08
66801;BME280;53703;50.326;19.122;2023-01-31T03:13:43;98070.27;;;16.47;42.07
66801;BME280;53703;50.326;19.122;2023-01-31T03:17:03;98081.24;;;16.49;41.97
66801;BME280;53703;50.326;19.122;2023-01-31T03:20:22;98090.02;;;16.53;41.95
66801;BME280;53703;50.326;19.122;2023-01-31T03:23:20;98097.44;;;16.57;41.82
66801;BME280;53703;50.326;19.122;2023-01-31T03:26:16;98095.98;;;16.53;41.97
66801;BME280;53703;50.326;19.122;2023-01-31T03:29:14;98107.75;;;16.57;41.89
66801;BME280;53703;50.326;19.122;2023-01-31T03:32:07;98097.33;;;16.53;41.89
66801;BME280;53703;50.326;19.122;2023-01-31T03:35:04;98103.65;;;16.51;41.87
66801;BME280;53703;50.326;19.122;2023-01-31T03:38:03;98114.65;;;16.50;41.96
66801;BME280;53703;50.326;19.122;2023-01-31T03:41:04;98119.38;;;16.53;41.79
66801;BME280;53703;50.326;19.122;2023-01-31T03:44:07;98119.98;;;16.52;41.89
66801;BME280;53703;50.326;19.122;2023-01-31T03:47:11;98132.77;;;16.53;41.70
66801;BME280;53703;50.326;19.122;2023-01-31T03:50:11;98137.85;;;16.55;41.83
66801;BME280;53703;50.326;19.122;2023-01-31T03:53:10;98137.19;;;16.54;41.77
66801;BME280;53703;50.326;19.122;2023-01-31T03:56:20;98140.06;;;16.53;41.95
66801;BME280;53703;50.326;19.122;2023-01-31T03:59:25;98142.38;;;16.52;41.73
66801;BME280;53703;50.326;19.122;2023-01-31T04:02:22;98149.64;;;16.52;41.80
66801;BME280;53703;50.326;19.122;2023-01-31T04:05:21;98157.35;;;16.52;41.81
66801;BME280;53703;50.326;19.122;2023-01-31T04:08:22;98159.93;;;16.49;41.88
66801;BME280;53703;50.326;19.122;2023-01-31T04:11:20;98172.36;;;16.48;41.89
66801;BME280;53703;50.326;19.122;2023-01-31T04:14:17;98185.23;;;16.53;41.86
66801;BME280;53703;50.326;19.122;2023-01-31T04:17:11;98187.63;;;16.48;41.83
66801;BME280;53703;50.326;19.122;2023-01-31T04:20:08;98183.15;;;16.51;41.82
66801;BME280;53703;50.326;19.122;2023-01-31T04:23:04;98180.80;;;16.46;41.98
66801;BME280;53703;50.326;19.122;2023-01-31T04:25:59;98190.27;;;16.46;41.90
66801;BME280;53703;50.326;19.122;2023-01-31T04:28:53;98193.67;;;16.44;41.90
66801;BME280;53703;50.326;19.122;2023-01-31T04:31:47;98194.49;;;16.46;42.00
66801;BME280;53703;50.326;19.122;2023-01-31T04:34:42;98190.18;;;16.52;41.81
66801;BME280;53703;50.326;19.122;2023-01-31T04:37:36;98199.41;;;16.50;41.82
66801;BME280;53703;50.326;19.122;2023-01-31T04:40:30;98200.69;;;16.45;41.94
66801;BME280;53703;50.326;19.122;2023-01-31T04:43:24;98200.52;;;16.44;41.93
66801;BME280;53703;50.326;19.122;2023-01-31T04:46:18;98210.23;;;16.43;42.00
66801;BME280;53703;50.326;19.122;2023-01-31T04:49:12;98206.80;;;16.47;41.96
66801;BME280;53703;50.326;19.122;2023-01-31T04:52:07;98210.85;;;16.45;41.81
66801;BME280;53703;50.326;19.122;2023-01-31T04:55:02;98212.14;;;16.47;41.99
66801;BME280;53703;50.326;19.122;2023-01-31T04:57:56;98222.04;;;16.52;41.83
66801;BME280;53703;50.326;19.122;2023-01-31T05:00:52;98228.16;;;16.51;41.77
66801;BME280;53703;50.326;19.122;2023-01-31T05:03:46;98231.42;;;16.50;41.76
66801;BME280;53703;50.326;19.122;2023-01-31T05:06:39;98240.65;;;16.44;41.95
66801;BME280;53703;50.326;19.122;2023-01-31T05:09:34;98246.84;;;16.41;42.06
66801;BME280;53703;50.326;19.122;2023-01-31T05:12:28;98249.32;;;16.45;42.18
66801;BME280;53703;50.326;19.122;2023-01-31T05:15:23;98253.84;;;16.41;42.26
66801;BME280;53703;50.326;19.122;2023-01-31T05:18:17;98259.81;;;16.35;42.52
66801;BME280;53703;50.326;19.122;2023-01-31T05:20:59;98263.85;;;16.53;42.32
66801;BME280;53703;50.326;19.122;2023-01-31T05:23:53;98268.35;;;16.61;42.04
66801;BME280;53703;50.326;19.122;2023-01-31T05:26:47;98270.27;;;16.67;42.14
66801;BME280;53703;50.326;19.122;2023-01-31T05:29:43;98270.41;;;16.62;42.77
66801;BME280;53703;50.326;19.122;2023-01-31T05:32:39;98279.52;;;16.69;42.32
66801;BME280;53703;50.326;19.122;2023-01-31T05:35:33;98275.66;;;16.66;42.78
66801;BME280;53703;50.326;19.122;2023-01-31T05:38:27;98275.08;;;16.62;42.62
66801;BME280;53703;50.326;19.122;2023-01-31T05:41:22;98276.69;;;16.66;42.64
66801;BME280;53703;50.326;19.122;2023-01-31T05:44:17;98279.73;;;16.60;43.01
66801;BME280;53703;50.326;19.122;2023-01-31T05:47:11;98276.71;;;16.59;42.86
66801;BME280;53703;50.326;19.122;2023-01-31T05:50:06;98282.67;;;16.59;42.92
66801;BME280;53703;50.326;19.122;2023-01-31T05:53:01;98283.83;;;16.60;43.14
66801;BME280;53703;50.326;19.122;2023-01-31T05:55:55;98285.89;;;16.55;42.92
66801;BME280;53703;50.326;19.122;2023-01-31T05:58:49;98292.05;;;16.48;43.09
66801;BME280;53703;50.326;19.122;2023-01-31T06:01:43;98296.00;;;16.51;42.87
66801;BME280;53703;50.326;19.122;2023-01-31T06:04:37;98300.47;;;16.53;42.90
66801;BME280;53703;50.326;19.122;2023-01-31T06:07:31;98313.81;;;16.52;42.90
66801;BME280;53703;50.326;19.122;2023-01-31T06:10:26;98321.18;;;16.53;42.77
66801;BME280;53703;50.326;19.122;2023-01-31T06:13:11;98329.23;;;16.49;42.76
66801;BME280;53703;50.326;19.122;2023-01-31T06:16:05;98329.80;;;16.55;42.48
66801;BME280;53703;50.326;19.122;2023-01-31T06:18:59;98339.58;;;16.50;42.68
66801;BME280;53703;50.326;19.122;2023-01-31T06:21:53;98347.23;;;16.46;42.72
66801;BME280;53703;50.326;19.122;2023-01-31T06:24:47;98351.70;;;16.48;42.62
66801;BME280;53703;50.326;19.122;2023-01-31T06:27:42;98357.85;;;16.50;42.53
66801;BME280;53703;50.326;19.122;2023-01-31T06:30:36;98366.95;;;16.47;42.55
66801;BME280;53703;50.326;19.122;2023-01-31T06:33:30;98373.67;;;16.51;42.37
66801;BME280;53703;50.326;19.122;2023-01-31T06:36:39;98385.98;;;16.62;42.29
66801;BME280;53703;50.326;19.122;2023-01-31T06:39:32;98388.64;;;16.54;42.31
66801;BME280;53703;50.326;19.122;2023-01-31T06:42:27;98391.23;;;16.45;42.49
66801;BME280;53703;50.326;19.122;2023-01-31T06:45:20;98391.17;;;16.44;42.44
66801;BME280;53703;50.326;19.122;2023-01-31T06:48:15;98396.61;;;16.42;42.54
66801;BME280;53703;50.326;19.122;2023-01-31T06:51:09;98407.42;;;16.40;42.44
66801;BME280;53703;50.326;19.122;2023-01-31T06:54:03;98414.36;;;16.38;42.45
66801;BME280;53703;50.326;19.122;2023-01-31T06:56:57;98419.52;;;16.40;42.43
66801;BME280;53703;50.326;19.122;2023-01-31T06:59:52;98429.94;;;16.40;42.50
66801;BME280;53703;50.326;19.122;2023-01-31T07:02:46;98435.56;;;16.37;42.42
66801;BME280;53703;50.326;19.122;2023-01-31T07:05:40;98435.42;;;16.38;42.58
66801;BME280;53703;50.326;19.122;2023-01-31T07:08:35;98441.26;;;16.40;42.40
66801;BME280;53703;50.326;19.122;2023-01-31T07:11:29;98441.52;;;16.31;42.66
66801;BME280;53703;50.326;19.122;2023-01-31T07:14:25;98441.97;;;16.38;42.90
66801;BME280;53703;50.326;19.122;2023-01-31T07:17:18;98446.80;;;16.46;42.41
66801;BME280;53703;50.326;19.122;2023-01-31T07:20:14;98448.00;;;16.50;42.33
66801;BME280;53703;50.326;19.122;2023-01-31T07:23:08;98443.23;;;16.43;42.43
66801;BME280;53703;50.326;19.122;2023-01-31T07:26:04;98446.23;;;16.22;42.71
66801;BME280;53703;50.326;19.122;2023-01-31T07:28:59;98441.67;;;16.21;42.71
66801;BME280;53703;50.326;19.122;2023-01-31T07:31:54;98448.09;;;16.28;42.70
66801;BME280;53703;50.326;19.122;2023-01-31T07:34:49;98447.67;;;16.27;42.66
66801;BME280;53703;50.326;19.122;2023-01-31T07:37:43;98449.65;;;16.27;42.56
66801;BME280;53703;50.326;19.122;2023-01-31T07:40:37;98454.12;;;16.22;42.51
66801;BME280;53703;50.326;19.122;2023-01-31T07:43:32;98459.12;;;16.24;42.58
66801;BME280;53703;50.326;19.122;2023-01-31T07:46:26;98463.89;;;16.27;42.52
66801;BME280;53703;50.326;19.122;2023-01-31T07:49:20;98466.77;;;16.31;42.76
66801;BME280;53703;50.326;19.122;2023-01-31T07:52:15;98474.05;;;16.30;42.63
66801;BME280;53703;50.326;19.122;2023-01-31T07:55:10;98475.70;;;16.20;42.71
66801;BME280;53703;50.326;19.122;2023-01-31T07:58:04;98473.97;;;16.16;42.80
66801;BME280;53703;50.326;19.122;2023-01-31T08:00:58;98477.11;;;16.22;43.01
66801;BME280;53703;50.326;19.122;2023-01-31T08:04:12;98479.52;;;16.31;42.54
66801;BME280;53703;50.326;19.122;2023-01-31T08:07:13;98480.75;;;16.23;42.68
66801;BME280;53703;50.326;19.122;2023-01-31T08:10:09;98489.76;;;16.11;42.91
66801;BME280;53703;50.326;19.122;2023-01-31T08:13:03;98485.64;;;16.12;43.09
66801;BME280;53703;50.326;19.122;2023-01-31T08:15:59;98494.68;;;16.14;42.77
66801;BME280;53703;50.326;19.122;2023-01-31T08:18:53;98498.83;;;16.32;42.97
66801;BME280;53703;50.326;19.122;2023-01-31T08:21:47;98502.36;;;16.25;42.78
66801;BME280;53703;50.326;19.122;2023-01-31T08:24:41;98508.13;;;16.14;42.84
66801;BME280;53703;50.326;19.122;2023-01-31T08:27:35;98511.73;;;16.13;42.90
66801;BME280;53703;50.326;19.122;2023-01-31T08:30:30;98512.68;;;16.18;43.28
66801;BME280;53703;50.326;19.122;2023-01-31T08:33:24;98520.64;;;15.92;43.73
66801;BME280;53703;50.326;19.122;2023-01-31T08:36:20;98522.34;;;15.78;45.21
66801;BME280;53703;50.326;19.122;2023-01-31T08:39:15;98521.55;;;15.87;44.73
66801;BME280;53703;50.326;19.122;2023-01-31T08:42:05;98522.17;;;15.87;44.69
66801;BME280;53703;50.326;19.122;2023-01-31T08:44:59;98529.88;;;15.90;44.57
66801;BME280;53703;50.326;19.122;2023-01-31T08:47:58;98534.84;;;15.93;45.43
66801;BME280;53703;50.326;19.122;2023-01-31T08:50:52;98544.13;;;16.06;45.36
66801;BME280;53703;50.326;19.122;2023-01-31T08:53:46;98545.70;;;16.06;44.60
66801;BME280;53703;50.326;19.122;2023-01-31T08:56:40;98545.16;;;15.91;44.37
66801;BME280;53703;50.326;19.122;2023-01-31T08:59:34;98545.16;;;15.78;45.44
66801;BME280;53703;50.326;19.122;2023-01-31T09:02:28;98544.88;;;15.99;46.82
66801;BME280;53703;50.326;19.122;2023-01-31T09:05:26;98549.08;;;15.91;47.59
66801;BME280;53703;50.326;19.122;2023-01-31T09:08:21;98556.31;;;15.87;45.53
66801;BME280;53703;50.326;19.122;2023-01-31T09:11:15;98559.40;;;15.85;44.67
66801;BME280;53703;50.326;19.122;2023-01-31T09:14:11;98567.52;;;13.78;46.61
66801;BME280;53703;50.326;19.122;2023-01-31T09:17:05;98569.71;;;13.89;48.50
66801;BME280;53703;50.326;19.122;2023-01-31T09:20:03;98573.61;;;15.51;44.71
66801;BME280;53703;50.326;19.122;2023-01-31T09:22:58;98575.70;;;15.86;44.68
66801;BME280;53703;50.326;19.122;2023-01-31T09:25:55;98572.03;;;16.04;45.75
66801;BME280;53703;50.326;19.122;2023-01-31T09:28:49;98571.15;;;16.04;45.35
66801;BME280;53703;50.326;19.122;2023-01-31T09:31:43;98570.20;;;16.01;44.75
66801;BME280;53703;50.326;19.122;2023-01-31T09:34:37;98567.57;;;16.00;44.59
66801;BME280;53703;50.326;19.122;2023-01-31T09:37:32;98568.33;;;16.04;44.56
66801;BME280;53703;50.326;19.122;2023-01-31T09:40:30;98572.13;;;16.17;45.58
66801;BME280;53703;50.326;19.122;2023-01-31T09:43:29;98575.98;;;16.27;45.19
66801;BME280;53703;50.326;19.122;2023-01-31T09:46:28;98575.81;;;16.31;45.34
66801;BME280;53703;50.326;19.122;2023-01-31T09:49:29;98578.92;;;16.18;45.16
66801;BME280;53703;50.326;19.122;2023-01-31T09:52:24;98580.50;;;16.16;45.17
66801;BME280;53703;50.326;19.122;2023-01-31T09:55:28;98591.11;;;16.14;44.85
66801;BME280;53703;50.326;19.122;2023-01-31T09:58:34;98590.01;;;16.10;45.15
66801;BME280;53703;50.326;19.122;2023-01-31T10:01:41;98585.96;;;16.10;44.37
66801;BME280;53703;50.326;19.122;2023-01-31T10:04:54;98586.92;;;16.07;44.87
66801;BME280;53703;50.326;19.122;2023-01-31T10:08:02;98588.33;;;16.06;44.75
66801;BME280;53703;50.326;19.122;2023-01-31T10:11:03;98587.00;;;16.13;45.46
66801;BME280;53703;50.326;19.122;2023-01-31T10:14:03;98592.11;;;16.25;45.13
66801;BME280;53703;50.326;19.122;2023-01-31T10:17:08;98588.17;;;16.36;45.01
66801;BME280;53703;50.326;19.122;2023-01-31T10:20:09;98589.19;;;16.42;44.58
66801;BME280;53703;50.326;19.122;2023-01-31T10:23:16;98585.68;;;16.39;44.64
66801;BME280;53703;50.326;19.122;2023-01-31T10:26:18;98590.15;;;16.27;46.18
66801;BME280;53703;50.326;19.122;2023-01-31T10:29:19;98589.86;;;16.35;46.89
66801;BME280;53703;50.326;19.122;2023-01-31T10:32:03;98583.31;;;16.29;47.18
66801;BME280;53703;50.326;19.122;2023-01-31T10:35:01;98584.06;;;16.26;47.73
66801;BME280;53703;50.326;19.122;2023-01-31T10:38:04;98585.23;;;16.26;47.68
66801;BME280;53703;50.326;19.122;2023-01-31T10:41:13;98581.90;;;16.25;47.33
66801;BME280;53703;50.326;19.122;2023-01-31T10:44:19;98583.57;;;16.28;46.58
66801;BME280;53703;50.326;19.122;2023-01-31T10:47:17;98586.11;;;16.26;46.74
66801;BME280;53703;50.326;19.122;2023-01-31T10:50:17;98584.73;;;16.25;47.00
66801;BME280;53703;50.326;19.122;2023-01-31T10:53:37;98581.88;;;16.31;46.39
66801;BME280;53703;50.326;19.122;2023-01-31T10:56:42;98578.73;;;16.17;46.54
66801;BME280;53703;50.326;19.122;2023-01-31T10:59:40;98575.69;;;16.14;46.39
66801;BME280;53703;50.326;19.122;2023-01-31T11:02:38;98570.52;;;16.08;46.48
66801;BME280;53703;50.326;19.122;2023-01-31T11:05:36;98568.98;;;16.04;46.67
66801;BME280;53703;50.326;19.122;2023-01-31T11:08:41;98572.86;;;16.05;46.61
66801;BME280;53703;50.326;19.122;2023-01-31T11:11:53;98573.27;;;16.03;47.01
66801;BME280;53703;50.326;19.122;2023-01-31T11:15:05;98569.66;;;16.01;47.43
66801;BME280;53703;50.326;19.122;2023-01-31T11:18:01;98565.27;;;16.02;47.18
66801;BME280;53703;50.326;19.122;2023-01-31T11:20:55;98557.44;;;16.00;47.56
66801;BME280;53703;50.326;19.122;2023-01-31T11:23:54;98553.05;;;16.05;47.47
66801;BME280;53703;50.326;19.122;2023-01-31T11:26:54;98550.36;;;15.98;47.91
66801;BME280;53703;50.326;19.122;2023-01-31T11:29:51;98547.00;;;15.97;47.78
66801;BME280;53703;50.326;19.122;2023-01-31T11:32:46;98547.51;;;16.02;47.77
66801;BME280;53703;50.326;19.122;2023-01-31T11:35:52;98548.19;;;16.15;48.06
66801;BME280;53703;50.326;19.122;2023-01-31T11:38:46;98551.48;;;16.03;47.47
66801;BME280;53703;50.326;19.122;2023-01-31T11:41:42;98546.64;;;15.91;47.72
66801;BME280;53703;50.326;19.122;2023-01-31T11:44:36;98537.58;;;15.86;47.56
66801;BME280;53703;50.326;19.122;2023-01-31T11:47:44;98537.70;;;15.85;47.71
66801;BME280;53703;50.326;19.122;2023-01-31T11:50:41;98534.81;;;15.88;47.10
66801;BME280;53703;50.326;19.122;2023-01-31T11:53:51;98532.09;;;15.87;47.21
66801;BME280;53703;50.326;19.122;2023-01-31T11:56:45;98534.82;;;15.86;47.18
66801;BME280;53703;50.326;19.122;2023-01-31T11:59:39;98536.85;;;15.81;47.38
66801;BME280;53703;50.326;19.122;2023-01-31T12:02:38;98526.02;;;15.84;46.88
66801;BME280;53703;50.326;19.122;2023-01-31T12:05:39;98527.60;;;15.80;47.07
66801;BME280;53703;50.326;19.122;2023-01-31T12:08:37;98528.56;;;15.76;47.28
66801;BME280;53703;50.326;19.122;2023-01-31T12:11:34;98522.29;;;15.81;46.93
66801;BME280;53703;50.326;19.122;2023-01-31T12:14:40;98518.90;;;15.79;46.89
66801;BME280;53703;50.326;19.122;2023-01-31T12:17:43;98514.35;;;15.89;47.30
66801;BME280;53703;50.326;19.122;2023-01-31T12:20:47;98514.11;;;15.89;47.50
66801;BME280;53703;50.326;19.122;2023-01-31T12:23:54;98514.55;;;15.64;47.16
66801;BME280;53703;50.326;19.122;2023-01-31T12:26:55;98509.13;;;15.60;47.16
66801;BME280;53703;50.326;19.122;2023-01-31T12:30:25;98509.52;;;15.58;47.57
66801;BME280;53703;50.326;19.122;2023-01-31T12:33:34;98505.06;;;15.54;47.71
66801;BME280;53703;50.326;19.122;2023-01-31T12:36:48;98503.25;;;15.52;47.72
66801;BME280;53703;50.326;19.122;2023-01-31T12:40:06;98503.41;;;15.50;47.73
66801;BME280;53703;50.326;19.122;2023-01-31T12:43:29;98499.01;;;15.48;47.94
66801;BME280;53703;50.326;19.122;2023-01-31T12:46:39;98497.46;;;15.46;47.86
66801;BME280;53703;50.326;19.122;2023-01-31T12:50:05;98496.84;;;15.48;48.10
66801;BME280;53703;50.326;19.122;2023-01-31T12:53:23;98492.83;;;15.48;47.84
66801;BME280;53703;50.326;19.122;2023-01-31T12:56:57;98490.29;;;15.41;48.13
66801;BME280;53703;50.326;19.122;2023-01-31T13:00:01;98489.48;;;15.39;48.16
66801;BME280;53703;50.326;19.122;2023-01-31T13:03:22;98494.69;;;15.35;48.43
66801;BME280;53703;50.326;19.122;2023-01-31T13:06:25;98495.21;;;15.36;48.69
66801;BME280;53703;50.326;19.122;2023-01-31T13:09:25;98492.81;;;15.44;49.02
66801;BME280;53703;50.326;19.122;2023-01-31T13:12:30;98489.27;;;15.39;48.06
66801;BME280;53703;50.326;19.122;2023-01-31T13:15:36;98493.48;;;15.43;49.09
66801;BME280;53703;50.326;19.122;2023-01-31T13:18:35;98495.38;;;15.45;48.04
66801;BME280;53703;50.326;19.122;2023-01-31T13:21:35;98495.69;;;15.36;47.86
66801;BME280;53703;50.326;19.122;2023-01-31T13:24:36;98492.35;;;15.42;49.15
66801;BME280;53703;50.326;19.122;2023-01-31T13:27:37;98487.70;;;15.50;48.67
66801;BME280;53703;50.326;19.122;2023-01-31T13:30:39;98477.59;;;15.42;48.21
66801;BME280;53703;50.326;19.122;2023-01-31T13:33:39;98469.86;;;15.35;48.52
66801;BME280;53703;50.326;19.122;2023-01-31T13:36:37;98462.49;;;15.29;47.82
66801;BME280;53703;50.326;19.122;2023-01-31T13:39:38;98468.20;;;15.28;47.46
66801;BME280;53703;50.326;19.122;2023-01-31T13:42:33;98469.66;;;15.27;48.47
66801;BME280;53703;50.326;19.122;2023-01-31T13:45:30;98465.70;;;15.26;49.11
66801;BME280;53703;50.326;19.122;2023-01-31T13:48:33;98468.63;;;15.23;48.71
66801;BME280;53703;50.326;19.122;2023-01-31T13:51:34;98466.86;;;15.22;48.15
66801;BME280;53703;50.326;19.122;2023-01-31T13:54:34;98477.15;;;15.20;48.15
66801;BME280;53703;50.326;19.122;2023-01-31T13:57:32;98480.11;;;15.31;48.91
66801;BME280;53703;50.326;19.122;2023-01-31T14:00:35;98481.00;;;15.22;48.36
66801;BME280;53703;50.326;19.122;2023-01-31T14:03:32;98480.31;;;15.18;48.29
66801;BME280;53703;50.326;19.122;2023-01-31T14:07:16;98485.50;;;15.16;48.37
66801;BME280;53703;50.326;19.122;2023-01-31T14:10:42;98486.54;;;15.19;48.21
66801;BME280;53703;50.326;19.122;2023-01-31T14:13:43;98475.73;;;15.17;48.30
66801;BME280;53703;50.326;19.122;2023-01-31T14:16:43;98468.45;;;15.16;49.14
66801;BME280;53703;50.326;19.122;2023-01-31T14:20:13;98462.90;;;15.10;48.62
66801;BME280;53703;50.326;19.122;2023-01-31T14:23:52;98451.15;;;15.11;48.44
66801;BME280;53703;50.326;19.122;2023-01-31T14:26:51;98449.48;;;15.21;49.36
66801;BME280;53703;50.326;19.122;2023-01-31T14:29:48;98440.27;;;15.42;50.04
66801;BME280;53703;50.326;19.122;2023-01-31T14:32:47;98433.67;;;15.38;48.26
66801;BME280;53703;50.326;19.122;2023-01-31T14:39:58;98428.87;;;15.31;48.46
66801;BME280;53703;50.326;19.122;2023-01-31T14:43:31;98436.88;;;15.44;48.80
66801;BME280;53703;50.326;19.122;2023-01-31T14:47:00;98429.48;;;15.39;48.08
66801;BME280;53703;50.326;19.122;2023-01-31T14:50:22;98427.92;;;15.55;49.09
66801;BME280;53703;50.326;19.122;2023-01-31T14:53:37;98427.83;;;15.48;49.34
66801;BME280;53703;50.326;19.122;2023-01-31T14:56:53;98426.80;;;15.43;49.76
66801;BME280;53703;50.326;19.122;2023-01-31T14:59:59;98426.48;;;15.36;50.90
66801;BME280;53703;50.326;19.122;2023-01-31T15:03:13;98428.48;;;15.35;49.96
66801;BME280;53703;50.326;19.122;2023-01-31T15:06:27;98425.45;;;15.38;49.74
66801;BME280;53703;50.326;19.122;2023-01-31T15:09:39;98424.36;;;15.48;50.87
66801;BME280;53703;50.326;19.122;2023-01-31T15:12:55;98423.23;;;15.67;50.60
66801;BME280;53703;50.326;19.122;2023-01-31T15:15:52;98421.09;;;15.55;49.30
66801;BME280;53703;50.326;19.122;2023-01-31T15:18:50;98419.06;;;15.43;48.92
66801;BME280;53703;50.326;19.122;2023-01-31T15:21:49;98419.91;;;15.42;48.90
66801;BME280;53703;50.326;19.122;2023-01-31T15:24:48;98412.33;;;15.40;48.60
66801;BME280;53703;50.326;19.122;2023-01-31T15:27:42;98412.70;;;15.42;48.86
66801;BME280;53703;50.326;19.122;2023-01-31T15:30:39;98409.10;;;15.40;49.28
66801;BME280;53703;50.326;19.122;2023-01-31T15:33:39;98410.00;;;15.41;48.99
66801;BME280;53703;50.326;19.122;2023-01-31T15:36:41;98411.33;;;15.46;48.87
66801;BME280;53703;50.326;19.122;2023-01-31T15:39:40;98403.77;;;15.43;48.87
66801;BME280;53703;50.326;19.122;2023-01-31T15:42:38;98399.42;;;15.40;49.12
66801;BME280;53703;50.326;19.122;2023-01-31T15:45:32;98395.90;;;15.40;48.89